Lake Hamilton, Arkansas
Current Conditions -  °F | °C
As of 10:53 AM on Monday 22 Dec 2014 (Local Time) from KHOT Reporting Station
Haze Haze  
Wind Chill: 51°   Ceiling: 400
Heat Index: 51°   Visibility: 3mi
Dew Point: 50°   Wind: 7mph
Humidity: 96%   Direction: 170°S
Pressure: 29.67"   Gusts: NA
Location:  34.4476°N, 93.1429°W
Report Text: KHOT 221653Z AUTO 17006KT 3SM BR OVC004 11/10 A2967 RMK AO2 RAB28E40 SLP045 P0000 T01060100
Loading
Personal Weather Stations






























Interactive Weather Map New forecast layout! Learn more

10-Day Weather Forecast

Advertisements
Track Severe Weather on mobile